createdAt,value
2022-08-17T00:00:49.655Z,67.93
2022-08-17T00:03:25.890Z,67.55
2022-08-17T00:06:00.792Z,67.70
2022-08-17T00:08:33.933Z,67.85
2022-08-17T00:11:09.543Z,67.74
2022-08-17T00:13:45.603Z,67.86
2022-08-17T00:16:50.993Z,68.25
2022-08-17T00:19:22.061Z,67.98
2022-08-17T00:22:31.047Z,67.91
2022-08-17T00:24:49.081Z,67.97
2022-08-17T00:27:20.719Z,68.32
2022-08-17T00:29:52.289Z,68.43
2022-08-17T00:33:13.673Z,68.37
2022-08-17T00:35:17.806Z,68.13
2022-08-17T00:37:49.256Z,68.47
2022-08-17T00:40:21.951Z,68.90
2022-08-17T00:42:56.813Z,69.03
2022-08-17T00:45:28.482Z,69.27
2022-08-17T00:47:59.738Z,69.26
2022-08-17T00:50:31.007Z,69.00
2022-08-17T00:53:05.489Z,68.83
2022-08-17T00:55:37.014Z,69.11
2022-08-17T00:58:09.248Z,69.09
2022-08-17T01:00:44.303Z,69.11
2022-08-17T01:03:20.383Z,68.99
2022-08-17T01:05:55.138Z,68.38
2022-08-17T01:08:29.746Z,68.30
2022-08-17T01:11:02.537Z,67.92
2022-08-17T01:13:40.755Z,67.52
2022-08-17T01:16:18.508Z,67.74
2022-08-17T01:18:53.871Z,67.90
2022-08-17T01:21:32.957Z,67.98
2022-08-17T01:24:04.978Z,68.39
2022-08-17T01:26:37.260Z,68.27
2022-08-17T01:29:09.530Z,68.19
2022-08-17T01:31:45.392Z,68.44
2022-08-17T01:34:18.756Z,68.15
2022-08-17T01:36:51.668Z,68.06
2022-08-17T01:39:27.905Z,68.52
2022-08-17T01:42:07.043Z,68.48
2022-08-17T01:44:38.552Z,68.43
2022-08-17T01:47:09.799Z,68.14
2022-08-17T01:49:41.301Z,68.18
2022-08-17T01:52:14.293Z,68.46
2022-08-17T01:54:48.597Z,68.58
2022-08-17T01:57:18.284Z,68.29
2022-08-17T01:59:49.429Z,68.18
2022-08-17T02:02:30.839Z,67.94
2022-08-17T02:05:02.885Z,67.99
2022-08-17T02:07:59.688Z,68.11
2022-08-17T02:10:34.109Z,68.26
2022-08-17T02:13:07.649Z,68.17
2022-08-17T02:15:39.125Z,68.41
2022-08-17T02:18:11.871Z,68.64
2022-08-17T02:20:44.210Z,68.87
2022-08-17T02:23:16.606Z,69.25
2022-08-17T02:25:49.997Z,69.15
2022-08-17T02:28:21.699Z,69.24
2022-08-17T02:31:01.615Z,69.15
2022-08-17T02:33:43.053Z,69.25
2022-08-17T02:36:16.180Z,69.05
2022-08-17T02:38:48.008Z,68.94
2022-08-17T02:41:19.536Z,69.11
2022-08-17T02:43:51.374Z,69.13
2022-08-17T02:46:22.865Z,69.21
2022-08-17T02:48:54.389Z,69.55
2022-08-17T02:51:26.023Z,69.71
2022-08-17T02:54:35.787Z,69.65
2022-08-17T02:56:48.709Z,69.29
2022-08-17T02:59:20.086Z,69.10
2022-08-17T03:01:51.511Z,68.95
2022-08-17T03:04:22.886Z,69.08
2022-08-17T03:06:54.157Z,69.08
2022-08-17T03:09:25.487Z,69.48
2022-08-17T03:11:57.461Z,69.65
2022-08-17T03:14:28.831Z,69.70
2022-08-17T03:17:00.305Z,69.91
2022-08-17T03:19:31.547Z,70.03
2022-08-17T03:22:35.930Z,70.21
2022-08-17T03:24:58.771Z,70.03
2022-08-17T03:27:35.233Z,69.90
2022-08-17T03:30:12.655Z,69.65
2022-08-17T03:32:51.566Z,69.62
2022-08-17T03:35:25.910Z,69.28
2022-08-17T03:38:00.029Z,69.40
2022-08-17T03:40:36.957Z,69.48
2022-08-17T03:43:25.356Z,69.15
2022-08-17T03:46:33.960Z,69.09
2022-08-17T03:49:23.501Z,69.49
2022-08-17T03:52:12.430Z,69.45
2022-08-17T03:55:01.827Z,69.68
2022-08-17T03:57:34.494Z,69.69
2022-08-17T04:00:06.718Z,69.77
2022-08-17T04:02:38.334Z,69.80
2022-08-17T04:05:11.076Z,69.79
2022-08-17T04:07:42.936Z,69.55
2022-08-17T04:10:14.376Z,69.11
2022-08-17T04:12:51.145Z,68.42
2022-08-17T04:15:22.959Z,68.01
2022-08-17T04:17:54.858Z,67.21
2022-08-17T04:20:27.802Z,66.85
2022-08-17T04:23:05.678Z,66.11
2022-08-17T04:25:39.315Z,65.25
2022-08-17T04:28:15.789Z,64.47
2022-08-17T04:30:49.043Z,63.94
2022-08-17T04:33:24.285Z,63.72
2022-08-17T04:35:59.521Z,63.45
2022-08-17T04:38:32.441Z,63.12
2022-08-17T04:41:21.667Z,62.78
2022-08-17T04:43:56.341Z,61.99
2022-08-17T04:46:30.068Z,61.22
2022-08-17T04:49:02.642Z,61.06
2022-08-17T04:51:36.094Z,60.99
2022-08-17T04:54:09.306Z,60.90
2022-08-17T04:56:41.599Z,60.28
2022-08-17T04:59:15.647Z,60.08
2022-08-17T05:01:47.138Z,59.73
2022-08-17T05:04:34.089Z,59.68
2022-08-17T05:07:07.022Z,59.33
2022-08-17T05:09:38.339Z,58.87
2022-08-17T05:12:10.354Z,58.98
2022-08-17T05:14:43.184Z,59.08
2022-08-17T05:17:14.585Z,58.85
2022-08-17T05:19:51.783Z,58.79
2022-08-17T05:22:23.413Z,58.28
2022-08-17T05:24:56.713Z,58.17
2022-08-17T05:27:30.833Z,57.97
2022-08-17T05:30:07.974Z,57.97
2022-08-17T05:32:40.438Z,58.03
2022-08-17T05:35:12.376Z,57.71
2022-08-17T05:37:43.579Z,57.30
2022-08-17T05:40:15.982Z,57.03
2022-08-17T05:42:47.335Z,56.43
2022-08-17T05:45:46.042Z,56.48
2022-08-17T05:48:13.242Z,56.60
2022-08-17T05:50:51.642Z,56.57
2022-08-17T05:53:32.616Z,56.74
2022-08-17T05:56:29.611Z,56.10
2022-08-17T05:59:09.493Z,55.63
2022-08-17T06:01:50.087Z,55.65
2022-08-17T06:04:31.742Z,55.56
2022-08-17T06:07:13.634Z,55.51
2022-08-17T06:09:53.776Z,55.22
2022-08-17T06:12:41.483Z,55.35
2022-08-17T06:15:25.275Z,55.20
2022-08-17T06:18:00.656Z,54.57
2022-08-17T06:20:37.188Z,54.13
2022-08-17T06:23:14.595Z,53.76
2022-08-17T06:25:51.149Z,53.17
2022-08-17T06:28:29.873Z,53.19
2022-08-17T06:31:07.779Z,53.36
2022-08-17T06:33:41.869Z,52.81
2022-08-17T06:36:28.968Z,52.83
2022-08-17T06:39:11.718Z,52.45
2022-08-17T06:41:52.501Z,52.02
2022-08-17T06:44:43.525Z,51.53
2022-08-17T06:47:28.093Z,51.43
2022-08-17T06:50:12.025Z,51.66
2022-08-17T06:52:52.073Z,51.75
2022-08-17T06:55:27.867Z,51.86
2022-08-17T06:58:15.802Z,51.99
2022-08-17T07:00:54.229Z,51.93
2022-08-17T07:03:38.226Z,51.70
2022-08-17T07:06:16.572Z,51.48
2022-08-17T07:08:55.492Z,51.44
2022-08-17T07:11:33.208Z,51.32
2022-08-17T07:14:20.546Z,51.95
2022-08-17T07:16:55.147Z,51.78
2022-08-17T07:19:32.654Z,52.09
2022-08-17T07:22:15.011Z,52.25
2022-08-17T07:24:51.867Z,51.78
2022-08-17T07:27:27.517Z,52.59
2022-08-17T07:30:08.027Z,52.76
2022-08-17T07:32:45.666Z,52.40
2022-08-17T07:35:22.493Z,52.33
2022-08-17T07:38:25.416Z,52.21
2022-08-17T07:41:06.512Z,52.32
2022-08-17T07:43:46.516Z,52.15
2022-08-17T07:46:38.172Z,52.11
2022-08-17T07:49:39.485Z,51.76
2022-08-17T07:52:50.770Z,51.28
2022-08-17T07:55:30.978Z,51.28
2022-08-17T07:58:03.854Z,50.72
2022-08-17T08:00:37.469Z,50.61
2022-08-17T08:03:22.127Z,50.83
2022-08-17T08:06:02.477Z,50.70
2022-08-17T08:08:39.138Z,50.56
2022-08-17T08:11:16.963Z,50.37
2022-08-17T08:13:50.156Z,50.33
2022-08-17T08:16:30.796Z,50.20
2022-08-17T08:19:04.309Z,50.58
2022-08-17T08:21:42.061Z,50.32
2022-08-17T08:24:33.074Z,50.33
2022-08-17T08:27:16.275Z,50.74
2022-08-17T08:29:55.451Z,50.64
2022-08-17T08:32:43.258Z,50.75
2022-08-17T08:35:26.919Z,51.02
2022-08-17T08:38:09.027Z,50.98
2022-08-17T08:40:52.890Z,50.05
2022-08-17T08:43:33.149Z,49.40
2022-08-17T08:46:24.445Z,49.59
2022-08-17T08:49:12.645Z,48.84
2022-08-17T08:51:53.790Z,48.57
2022-08-17T08:54:40.166Z,48.21
2022-08-17T08:57:25.707Z,47.97
2022-08-17T09:00:15.093Z,48.40
2022-08-17T09:03:42.569Z,48.35
2022-08-17T09:06:39.194Z,48.21
2022-08-17T09:09:24.612Z,48.06
2022-08-17T09:12:04.239Z,47.76
2022-08-17T09:14:47.323Z,48.09
2022-08-17T09:17:22.817Z,48.33
2022-08-17T09:20:01.523Z,48.26
2022-08-17T09:22:37.795Z,48.54
2022-08-17T09:25:15.250Z,48.38
2022-08-17T09:27:56.937Z,48.14
2022-08-17T09:30:41.060Z,48.43
2022-08-17T09:33:15.623Z,48.23
2022-08-17T09:35:52.625Z,47.73
2022-08-17T09:38:32.717Z,48.08
2022-08-17T09:41:14.130Z,48.20
2022-08-17T09:43:52.229Z,48.44
2022-08-17T09:46:26.854Z,47.66
2022-08-17T09:49:04.681Z,46.75
2022-08-17T09:51:42.988Z,47.17
2022-08-17T09:54:38.655Z,47.28
2022-08-17T09:57:31.821Z,47.53
2022-08-17T10:00:24.104Z,47.97
2022-08-17T10:03:20.229Z,47.96
2022-08-17T10:05:59.804Z,48.46
2022-08-17T10:08:43.897Z,48.44
2022-08-17T10:11:48.396Z,48.45
2022-08-17T10:14:37.979Z,48.11
2022-08-17T10:17:23.038Z,48.49
2022-08-17T10:20:01.361Z,48.64
2022-08-17T10:23:00.062Z,49.17
2022-08-17T10:25:58.473Z,49.07
2022-08-17T10:28:40.483Z,48.74
2022-08-17T10:31:39.730Z,48.52
2022-08-17T10:34:41.587Z,48.49
2022-08-17T10:37:44.042Z,48.65
2022-08-17T10:40:32.792Z,48.59
2022-08-17T10:43:17.658Z,47.69
2022-08-17T10:46:30.198Z,47.60
2022-08-17T10:49:08.888Z,47.58
2022-08-17T10:51:42.286Z,47.71
2022-08-17T10:54:41.273Z,47.66
2022-08-17T10:57:39.429Z,47.37
2022-08-17T11:00:16.603Z,47.35
2022-08-17T11:02:53.517Z,46.93
2022-08-17T11:05:47.746Z,46.93
2022-08-17T11:08:50.742Z,47.47
2022-08-17T11:11:52.918Z,47.61
2022-08-17T11:14:50.802Z,48.65
2022-08-17T11:17:42.894Z,49.22
2022-08-17T11:20:58.758Z,49.18
2022-08-17T11:23:57.635Z,49.25
2022-08-17T11:26:32.354Z,49.52
2022-08-17T11:29:09.845Z,49.54
2022-08-17T11:31:43.942Z,49.38
2022-08-17T11:34:26.815Z,49.28
2022-08-17T11:37:17.097Z,49.22
2022-08-17T11:40:19.631Z,48.96
2022-08-17T11:43:08.220Z,49.15
2022-08-17T11:46:03.751Z,48.97
2022-08-17T11:49:00.472Z,49.29
2022-08-17T11:52:01.634Z,50.19
2022-08-17T11:54:51.182Z,51.19
2022-08-17T11:58:02.041Z,51.70
2022-08-17T12:00:58.122Z,52.11
2022-08-17T12:03:57.475Z,52.01
2022-08-17T12:06:42.854Z,51.92
2022-08-17T12:09:18.718Z,51.95
2022-08-17T12:12:12.117Z,51.71
2022-08-17T12:15:10.529Z,51.22
2022-08-17T12:17:43.974Z,50.42
2022-08-17T12:20:24.411Z,49.79
2022-08-17T12:23:05.821Z,49.32
2022-08-17T12:25:40.576Z,49.20
2022-08-17T12:28:26.545Z,49.06
2022-08-17T12:31:01.345Z,48.86
2022-08-17T12:33:33.351Z,48.92
2022-08-17T12:36:07.703Z,49.52
2022-08-17T12:38:40.280Z,49.66
2022-08-17T12:41:30.271Z,49.95
2022-08-17T12:44:05.513Z,49.75
2022-08-17T12:46:49.323Z,49.68
2022-08-17T12:49:29.309Z,49.88
2022-08-17T12:52:09.377Z,49.33
2022-08-17T12:54:56.714Z,49.05
2022-08-17T12:57:33.470Z,48.88
2022-08-17T13:00:11.803Z,48.68
2022-08-17T13:02:48.033Z,48.58
2022-08-17T13:05:25.706Z,49.07
2022-08-17T13:07:58.619Z,48.67
2022-08-17T13:10:34.024Z,48.36
2022-08-17T13:13:18.598Z,48.58
2022-08-17T13:15:58.222Z,48.22
2022-08-17T13:18:44.435Z,48.52
2022-08-17T13:21:28.979Z,48.19
2022-08-17T13:24:02.819Z,47.84
2022-08-17T13:26:38.037Z,47.42
2022-08-17T13:29:23.589Z,47.21
2022-08-17T13:32:04.811Z,47.00
2022-08-17T13:35:05.262Z,47.50
2022-08-17T13:37:35.434Z,47.40
2022-08-17T13:40:29.670Z,47.70
2022-08-17T13:43:03.594Z,47.57
2022-08-17T13:45:38.851Z,47.55
2022-08-17T13:48:17.948Z,48.22
2022-08-17T13:51:04.364Z,48.74
2022-08-17T13:53:53.550Z,49.08
2022-08-17T13:56:54.895Z,48.85
2022-08-17T13:59:55.214Z,48.58
2022-08-17T14:02:28.675Z,48.73
2022-08-17T14:05:06.075Z,48.37
2022-08-17T14:07:40.471Z,48.56
2022-08-17T14:10:17.644Z,48.98
2022-08-17T14:12:51.238Z,49.20
2022-08-17T14:15:54.868Z,48.84
2022-08-17T14:18:41.978Z,48.60
2022-08-17T14:21:12.175Z,48.35
2022-08-17T14:23:54.445Z,48.20
2022-08-17T14:26:26.012Z,48.06
2022-08-17T14:28:58.044Z,47.62
2022-08-17T14:31:34.065Z,47.47
2022-08-17T14:34:10.866Z,47.44
2022-08-17T14:36:45.426Z,47.67
2022-08-17T14:39:20.813Z,47.43
2022-08-17T14:41:53.483Z,47.44
2022-08-17T14:44:24.916Z,47.41
2022-08-17T14:46:57.783Z,47.44
2022-08-17T14:49:31.826Z,47.29
2022-08-17T14:52:04.268Z,47.35
2022-08-17T14:54:35.729Z,47.21
2022-08-17T14:57:15.585Z,47.30
2022-08-17T14:59:59.501Z,47.38
2022-08-17T15:02:31.338Z,47.68
2022-08-17T15:05:05.151Z,47.56
2022-08-17T15:07:36.616Z,47.67
2022-08-17T15:10:09.363Z,47.86
2022-08-17T15:12:41.573Z,47.98
2022-08-17T15:15:15.731Z,48.12
2022-08-17T15:17:47.398Z,48.34
2022-08-17T15:20:22.215Z,48.59
2022-08-17T15:22:55.891Z,48.60
2022-08-17T15:25:29.890Z,48.43
2022-08-17T15:28:01.950Z,48.32
2022-08-17T15:30:34.889Z,48.06
2022-08-17T15:33:08.201Z,48.50
2022-08-17T15:35:39.780Z,48.70
2022-08-17T15:38:12.487Z,48.40
2022-08-17T15:40:46.478Z,48.25
2022-08-17T15:43:17.517Z,48.30
2022-08-17T15:45:52.538Z,48.12
2022-08-17T15:48:42.594Z,48.02
2022-08-17T15:51:16.807Z,47.84
2022-08-17T15:53:52.206Z,47.99
2022-08-17T15:56:24.037Z,48.09
2022-08-17T15:58:56.151Z,48.46
2022-08-17T16:02:15.377Z,48.50
2022-08-17T16:04:29.711Z,48.73
2022-08-17T16:07:03.150Z,48.95
2022-08-17T16:09:34.833Z,49.47
2022-08-17T16:12:14.745Z,49.68
2022-08-17T16:14:46.508Z,50.00
2022-08-17T16:17:39.027Z,50.21
2022-08-17T16:20:20.011Z,50.60
2022-08-17T16:22:54.173Z,50.12
2022-08-17T16:25:38.807Z,49.98
2022-08-17T16:28:35.804Z,50.09
2022-08-17T16:31:08.880Z,49.82
2022-08-17T16:33:41.417Z,49.30
2022-08-17T16:36:13.608Z,49.07
2022-08-17T16:38:44.880Z,50.00
2022-08-17T16:41:37.203Z,51.02
2022-08-17T16:44:10.799Z,52.16
2022-08-17T16:46:48.739Z,52.30
2022-08-17T16:49:36.119Z,52.46
2022-08-17T16:55:08.704Z,52.61
2022-08-17T16:57:47.193Z,52.73
2022-08-17T17:00:22.040Z,52.60
2022-08-17T17:02:54.941Z,52.14
2022-08-17T17:05:39.236Z,52.18
2022-08-17T17:08:12.883Z,52.69
2022-08-17T17:10:48.152Z,52.70
2022-08-17T17:13:26.936Z,52.83
2022-08-17T17:16:19.397Z,52.77
2022-08-17T17:19:09.619Z,53.33
2022-08-17T17:21:46.711Z,53.79
2022-08-17T17:24:28.886Z,54.49
2022-08-17T17:27:17.994Z,54.75
2022-08-17T17:30:03.947Z,54.48
2022-08-17T17:32:40.808Z,54.75
2022-08-17T17:35:18.158Z,55.31
2022-08-17T17:37:51.749Z,56.22
2022-08-17T17:40:26.970Z,55.91
2022-08-17T17:43:20.442Z,56.52
2022-08-17T17:45:58.845Z,56.30
2022-08-17T17:48:50.801Z,56.48
2022-08-17T17:51:58.146Z,57.35
2022-08-17T17:54:33.992Z,57.89
2022-08-17T17:57:16.240Z,57.71
2022-08-17T17:59:59.024Z,57.89
2022-08-17T18:02:51.986Z,58.43
2022-08-17T18:05:44.615Z,58.88
2022-08-17T18:08:32.369Z,59.34
2022-08-17T18:11:15.126Z,59.91
2022-08-17T18:14:07.010Z,60.18
2022-08-17T18:16:42.993Z,60.26
2022-08-17T18:19:20.157Z,59.77
2022-08-17T18:21:54.811Z,59.88
2022-08-17T18:24:35.777Z,60.19
2022-08-17T18:27:23.593Z,60.64
2022-08-17T18:29:56.594Z,60.62
2022-08-17T18:32:34.674Z,60.59
2022-08-17T18:35:28.666Z,60.77
2022-08-17T18:38:20.596Z,60.82
2022-08-17T18:41:01.856Z,61.23
2022-08-17T18:43:44.251Z,61.02
2022-08-17T18:46:33.376Z,61.09
2022-08-17T18:49:07.822Z,61.34
2022-08-17T18:51:43.307Z,61.26
2022-08-17T18:54:24.238Z,61.63
2022-08-17T18:57:00.492Z,61.38
2022-08-17T18:59:35.961Z,61.15
2022-08-17T19:02:39.137Z,61.41
2022-08-17T19:05:27.821Z,61.59
2022-08-17T19:08:19.900Z,61.67
2022-08-17T19:10:55.298Z,61.25
2022-08-17T19:13:35.731Z,61.81
2022-08-17T19:16:15.726Z,62.20
2022-08-17T19:18:52.342Z,62.47
2022-08-17T19:21:28.660Z,62.98
2022-08-17T19:24:06.682Z,63.23
2022-08-17T19:26:50.914Z,63.30
2022-08-17T19:29:34.374Z,63.00
2022-08-17T19:32:08.150Z,62.97
2022-08-17T19:34:44.967Z,63.08
2022-08-17T19:37:30.996Z,63.28
2022-08-17T19:40:24.484Z,63.68
2022-08-17T19:43:16.192Z,63.92
2022-08-17T19:45:59.653Z,64.17
2022-08-17T19:48:45.831Z,64.26
2022-08-17T19:51:23.171Z,64.08
2022-08-17T19:54:07.379Z,64.14
2022-08-17T19:56:49.306Z,64.41
2022-08-17T19:59:36.144Z,64.46
2022-08-17T20:05:19.003Z,64.52
2022-08-17T20:07:56.511Z,64.67
2022-08-17T20:10:37.149Z,64.69
2022-08-17T20:13:15.635Z,64.36
2022-08-17T20:15:49.345Z,64.32
2022-08-17T20:18:25.908Z,64.48
2022-08-17T20:21:22.538Z,64.44
2022-08-17T20:24:15.695Z,64.23
2022-08-17T20:26:58.956Z,64.12
2022-08-17T20:30:22.566Z,64.44
2022-08-17T20:33:32.125Z,64.53
2022-08-17T20:36:35.641Z,64.21
2022-08-17T20:39:07.442Z,64.36
2022-08-17T20:42:07.473Z,64.49
2022-08-17T20:44:40.046Z,64.56
2022-08-17T20:47:29.625Z,64.58
2022-08-17T20:50:07.155Z,64.47
2022-08-17T20:52:57.065Z,64.63
2022-08-17T20:55:56.417Z,64.72
2022-08-17T20:58:50.443Z,64.61
2022-08-17T21:01:40.599Z,64.44
2022-08-17T21:04:47.737Z,64.47
2022-08-17T21:07:51.659Z,64.17
2022-08-17T21:10:44.358Z,63.87
2022-08-17T21:13:40.878Z,64.07
2022-08-17T21:16:29.839Z,63.90
2022-08-17T21:19:17.148Z,64.03
2022-08-17T21:22:03.466Z,63.63
2022-08-17T21:24:52.750Z,64.15
2022-08-17T21:27:37.016Z,64.27
2022-08-17T21:30:25.600Z,64.32
2022-08-17T21:33:25.380Z,64.82
2022-08-17T21:36:27.382Z,65.02
2022-08-17T21:39:09.113Z,64.75
2022-08-17T21:41:53.124Z,64.43
2022-08-17T21:44:32.992Z,64.61
2022-08-17T21:47:20.635Z,64.86
2022-08-17T21:49:52.177Z,64.18
2022-08-17T21:52:28.202Z,64.19
2022-08-17T21:55:02.571Z,63.97
2022-08-17T21:57:35.956Z,63.92
2022-08-17T22:00:16.148Z,64.22
2022-08-17T22:02:57.385Z,64.13
2022-08-17T22:05:37.427Z,64.46
2022-08-17T22:08:19.729Z,64.63
2022-08-17T22:10:52.371Z,64.59
2022-08-17T22:13:29.683Z,64.82
2022-08-17T22:16:29.287Z,64.55
2022-08-17T22:19:02.363Z,64.25
2022-08-17T22:21:33.787Z,64.60
2022-08-17T22:24:15.583Z,65.07
2022-08-17T22:27:02.729Z,65.15
2022-08-17T22:30:02.377Z,64.77
2022-08-17T22:32:46.695Z,65.22
2022-08-17T22:35:37.532Z,65.53
2022-08-17T22:38:29.730Z,65.82
2022-08-17T22:41:32.217Z,66.02
2022-08-17T22:44:18.046Z,65.78
2022-08-17T22:47:11.238Z,65.53
2022-08-17T22:49:53.153Z,65.13
2022-08-17T22:52:34.837Z,65.45
2022-08-17T22:55:32.702Z,65.48
2022-08-17T22:58:28.009Z,65.68
2022-08-17T23:01:19.641Z,65.87
2022-08-17T23:03:58.558Z,66.33
2022-08-17T23:06:30.837Z,66.39
2022-08-17T23:09:04.165Z,66.74
2022-08-17T23:11:49.414Z,66.57
2022-08-17T23:14:23.463Z,66.73
2022-08-17T23:16:54.897Z,66.94
2022-08-17T23:19:27.551Z,66.71
2022-08-17T23:22:00.037Z,66.29
2022-08-17T23:24:36.056Z,66.42
2022-08-17T23:27:07.810Z,66.65
2022-08-17T23:29:42.323Z,66.87
2022-08-17T23:32:16.006Z,67.19
2022-08-17T23:34:51.229Z,67.15
2022-08-17T23:37:23.307Z,67.01
2022-08-17T23:39:54.839Z,66.99
2022-08-17T23:42:26.320Z,67.26
2022-08-17T23:44:57.833Z,66.86
2022-08-17T23:47:29.437Z,67.02
2022-08-17T23:50:02.855Z,67.05
2022-08-17T23:52:37.153Z,66.47
2022-08-17T23:55:10.303Z,66.72
2022-08-17T23:57:42.299Z,67.10
